Temp: 19.4°C   Baro: 1010.5mb
  Wind: 4.0mph   Dir: SSE (165°)
  Rain: 0.0mm (0.0mm/hr)
  Sun: 127W/m2  Humidity: 82%

Historic data

Bath Spa Weather Station Historical Data
Daily Summary for June 09, 2023 Units:  Metric    English   Both
Daily Weekly Monthly Yearly Custom
  High: Low: Average:
Temperature: 28 °C 10.4 °C 18.8 °C
Dew Point: 18.3 °C 8 °C 13.1 °C
Humidity: 86% 53% 71%
Wind Speed: 16.7km/h 1.4km/h 9km/h
Wind Gust: 35.4km/h - -
Wind- - ENE
Pressure: 1015.5 hPa 1011.1 hPa -
Precipitation: 0 mm    
Historical Graphs
 
 
Tabular Data for June 09, 2023
Time Temperature Dew Point Pressure Wind Wind Speed Wind Gust Humidity Rainfall Rate (Hourly) solar
00:09 14.4 °C 10.4 °C 1015.1 hPa East 7.2 km/h 24.1 km/h 77% 0 mm 0 W/m2
00:14 14.3 °C 10.3 °C 1015.1 hPa ENE 12.1 km/h 24.1 km/h 77% 0 mm 0 W/m2
00:19 14.2 °C 10.2 °C 1015.1 hPa ENE 6.9 km/h 19.3 km/h 77% 0 mm 0 W/m2
00:24 14 °C 10 °C 1015.1 hPa East 9 km/h 24.1 km/h 77% 0 mm 0 W/m2
00:29 13.9 °C 9.9 °C 1015.1 hPa East 9.7 km/h 20.9 km/h 77% 0 mm 0 W/m2
00:34 13.8 °C 9.9 °C 1015.1 hPa East 12.9 km/h 22.5 km/h 77.8% 0 mm 0 W/m2
00:39 13.7 °C 9.9 °C 1015.1 hPa ENE 9 km/h 22.5 km/h 78% 0 mm 0 W/m2
00:44 13.6 °C 9.7 °C 1015.1 hPa ESE 7.2 km/h 16.1 km/h 77.6% 0 mm 0 W/m2
00:49 13.4 °C 9.7 °C 1015.1 hPa NE 5.8 km/h 14.5 km/h 78% 0 mm 0 W/m2
00:54 13.3 °C 9.6 °C 1015.1 hPa East 9.3 km/h 22.5 km/h 78% 0 mm 0 W/m2
00:59 13.2 °C 9.4 °C 1015.1 hPa East 6 km/h 22.5 km/h 78% 0 mm 0 W/m2
01:04 13.1 °C 9.4 °C 1015.1 hPa ESE 10.1 km/h 17.7 km/h 78% 0 mm 0 W/m2
01:09 12.9 °C 9.3 °C 1015.1 hPa ESE 6 km/h 16.1 km/h 78% 0 mm 0 W/m2
01:14 12.8 °C 9.2 °C 1015.1 hPa East 6.4 km/h 22.5 km/h 78% 0 mm 0 W/m2
01:19 12.7 °C 9.1 °C 1015.1 hPa East 6 km/h 17.7 km/h 78% 0 mm 0 W/m2
01:24 12.7 °C 8.9 °C 1015.1 hPa ESE 6 km/h 24.1 km/h 78% 0 mm 0 W/m2
01:29 12.6 °C 8.9 °C 1015.1 hPa East 8.4 km/h 24.1 km/h 78% 0 mm 0 W/m2
01:34 12.4 °C 8.7 °C 1015.1 hPa ENE 7.4 km/h 20.9 km/h 78% 0 mm 0 W/m2
01:39 12.4 °C 8.8 °C 1015.1 hPa ENE 8.2 km/h 24.1 km/h 78.6% 0 mm 0 W/m2
01:44 12.3 °C 8.8 °C 1015.1 hPa ESE 7.6 km/h 12.9 km/h 79% 0 mm 0 W/m2
01:49 12.2 °C 8.7 °C 1015.1 hPa East 11.3 km/h 22.5 km/h 79% 0 mm 0 W/m2
01:54 12.1 °C 8.7 °C 1015.1 hPa East 7.7 km/h 27.4 km/h 79.6% 0 mm 0 W/m2
01:59 12.1 °C 8.8 °C 1015.1 hPa SE 7.4 km/h 17.7 km/h 80% 0 mm 0 W/m2
02:04 11.9 °C 8.7 °C 1015.1 hPa ENE 6.4 km/h 17.7 km/h 80% 0 mm 0 W/m2
02:09 11.9 °C 8.6 °C 1015.5 hPa ESE 10.1 km/h 17.7 km/h 80% 0 mm 0 W/m2
02:14 11.8 °C 8.6 °C 1015.1 hPa East 11.6 km/h 20.9 km/h 81% 0 mm 0 W/m2
02:19 11.7 °C 8.6 °C 1015.1 hPa ENE 10.1 km/h 22.5 km/h 81% 0 mm 0 W/m2
02:24 11.7 °C 8.5 °C 1015.1 hPa East 4.3 km/h 17.7 km/h 81% 0 mm 0 W/m2
02:29 11.6 °C 8.5 °C 1015.1 hPa East 6.8 km/h 20.9 km/h 81% 0 mm 0 W/m2
02:34 11.6 °C 8.6 °C 1015.1 hPa ESE 3.2 km/h 16.1 km/h 81.8% 0 mm 0 W/m2
02:39 11.5 °C 8.5 °C 1015.1 hPa ESE 10.1 km/h 17.7 km/h 82% 0 mm 0 W/m2
02:44 11.4 °C 8.4 °C 1015.1 hPa ESE 5.5 km/h 12.9 km/h 82% 0 mm 0 W/m2
02:49 11.3 °C 8.3 °C 1015.1 hPa SE 4.8 km/h 16.1 km/h 82% 0 mm 0 W/m2
02:54 11.3 °C 8.3 °C 1015.1 hPa ESE 5.3 km/h 14.5 km/h 82% 0 mm 0 W/m2
02:59 11.2 °C 8.4 °C 1015.1 hPa East 6.3 km/h 20.9 km/h 83% 0 mm 0 W/m2
03:04 11.2 °C 8.4 °C 1015.1 hPa ESE 7.7 km/h 19.3 km/h 83% 0 mm 0 W/m2
03:09 11.1 °C 8.3 °C 1015.1 hPa East 8.7 km/h 20.9 km/h 83% 0 mm 0 W/m2
03:14 11.1 °C 8.3 °C 1015.1 hPa East 6.4 km/h 20.9 km/h 83% 0 mm 0 W/m2
03:19 11 °C 8.2 °C 1015.1 hPa East 5.6 km/h 16.1 km/h 83% 0 mm 0 W/m2
03:24 10.9 °C 8.2 °C 1015.1 hPa East 4 km/h 16.1 km/h 83.8% 0 mm 0 W/m2
03:29 10.9 °C 8.3 °C 1014.8 hPa East 4 km/h 16.1 km/h 84% 0 mm 0 W/m2
03:34 10.8 °C 8.2 °C 1014.8 hPa SE 6 km/h 12.9 km/h 84% 0 mm 0 W/m2
03:39 10.8 °C 8.2 °C 1014.8 hPa ESE 7.4 km/h 14.5 km/h 84% 0 mm 0 W/m2
03:44 10.7 °C 8.1 °C 1014.8 hPa East 6 km/h 14.5 km/h 84% 0 mm 0 W/m2
03:49 10.7 °C 8.1 °C 1014.8 hPa SE 7.4 km/h 17.7 km/h 84% 0 mm 0 W/m2
03:54 10.6 °C 8.2 °C 1014.8 hPa ESE 7.1 km/h 17.7 km/h 85% 0 mm 0 W/m2
03:59 10.6 °C 8.2 °C 1014.8 hPa East 3.2 km/h 12.9 km/h 85% 0 mm 0 W/m2
04:04 10.6 °C 8.2 °C 1014.8 hPa East 2.3 km/h 12.9 km/h 85% 0 mm 0 W/m2
04:09 10.6 °C 8.2 °C 1014.8 hPa ESE 2.6 km/h 8 km/h 85% 0 mm 0 W/m2
04:14 10.6 °C 8.2 °C 1014.8 hPa NE 3.1 km/h 11.3 km/h 85% 0 mm 0 W/m2
04:19 10.5 °C 8.1 °C 1014.8 hPa ESE 6 km/h 12.9 km/h 85% 0 mm 0 W/m2
04:24 10.5 °C 8.1 °C 1014.8 hPa South 1.4 km/h 11.3 km/h 85% 0 mm 0 W/m2
04:29 10.5 °C 8.1 °C 1014.8 hPa NE 3.9 km/h 11.3 km/h 85% 0 mm 0 W/m2
04:34 10.5 °C 8.1 °C 1014.8 hPa SE 6.1 km/h 14.5 km/h 85% 0 mm 0 W/m2
04:39 10.4 °C 8.1 °C 1014.8 hPa NE 4.7 km/h 14.5 km/h 85% 0 mm 0 W/m2
04:44 10.4 °C 8 °C 1015.1 hPa NE 4.7 km/h 11.3 km/h 85% 0 mm 0 W/m2
04:49 10.4 °C 8 °C 1015.1 hPa East 6 km/h 11.3 km/h 85% 0 mm 0 W/m2
04:54 10.4 °C 8 °C 1015.1 hPa NE 6.9 km/h 14.5 km/h 85% 0 mm 0 W/m2
04:59 10.4 °C 8 °C 1014.8 hPa NE 3.2 km/h 14.5 km/h 85% 0 mm 5 W/m2
05:04 10.4 °C 8 °C 1014.8 hPa East 4.7 km/h 12.9 km/h 85% 0 mm 7 W/m2
05:09 10.4 °C 8 °C 1014.8 hPa NE 6.1 km/h 16.1 km/h 85% 0 mm 7 W/m2
05:14 10.4 °C 8 °C 1014.8 hPa ENE 4 km/h 9.7 km/h 85% 0 mm 9 W/m2
05:19 10.4 °C 8.1 °C 1014.8 hPa SE 3.9 km/h 8 km/h 85.4% 0 mm 11 W/m2
05:24 10.4 °C 8.2 °C 1014.8 hPa East 7.1 km/h 19.3 km/h 86% 0 mm 14 W/m2
05:29 10.5 °C 8.2 °C 1014.8 hPa East 7.6 km/h 19.3 km/h 85.8% 0 mm 18 W/m2
05:34 10.5 °C 8.1 °C 1014.8 hPa East 8 km/h 16.1 km/h 85.2% 0 mm 19 W/m2
05:39 10.5 °C 8.1 °C 1014.8 hPa East 5.3 km/h 20.9 km/h 85% 0 mm 21 W/m2
05:44 10.5 °C 8.1 °C 1014.8 hPa ENE 6.8 km/h 24.1 km/h 85% 0 mm 23 W/m2
05:49 10.6 °C 8.2 °C 1014.8 hPa East 6 km/h 22.5 km/h 85% 0 mm 28 W/m2
05:54 10.6 °C 8.2 °C 1014.8 hPa East 7.2 km/h 25.7 km/h 85% 0 mm 30 W/m2
05:59 10.6 °C 8.2 °C 1014.8 hPa East 8.4 km/h 22.5 km/h 85% 0 mm 33 W/m2
06:04 10.7 °C 8.3 °C 1015.1 hPa ENE 9.3 km/h 22.5 km/h 85% 0 mm 35 W/m2
06:09 10.7 °C 8.3 °C 1014.8 hPa East 11.6 km/h 20.9 km/h 85% 0 mm 49 W/m2
06:14 10.7 °C 8.3 °C 1014.8 hPa ENE 10.3 km/h 22.5 km/h 85% 0 mm 47 W/m2
06:19 10.8 °C 8.4 °C 1014.8 hPa East 4.7 km/h 14.5 km/h 85% 0 mm 51 W/m2
06:24 10.8 °C 8.4 °C 1014.8 hPa East 9.3 km/h 19.3 km/h 85% 0 mm 53 W/m2
06:29 10.8 °C 8.4 °C 1014.8 hPa East 10.6 km/h 16.1 km/h 85% 0 mm 62 W/m2
06:34 10.9 °C 8.5 °C 1014.8 hPa ENE 10 km/h 24.1 km/h 85% 0 mm 65 W/m2
06:39 10.9 °C 8.5 °C 1015.1 hPa ENE 8 km/h 19.3 km/h 85% 0 mm 63 W/m2
06:44 11 °C 8.6 °C 1015.1 hPa East 12.9 km/h 20.9 km/h 85% 0 mm 62 W/m2
06:49 11.1 °C 8.7 °C 1015.1 hPa ENE 12.1 km/h 22.5 km/h 85% 0 mm 63 W/m2
06:54 11.1 °C 8.7 °C 1014.8 hPa East 6.6 km/h 17.7 km/h 85% 0 mm 62 W/m2
06:59 11.2 °C 8.7 °C 1014.8 hPa ENE 10.3 km/h 17.7 km/h 85% 0 mm 72 W/m2
07:04 11.2 °C 8.8 °C 1014.8 hPa ESE 7.6 km/h 20.9 km/h 85% 0 mm 91 W/m2
07:09 11.2 °C 8.8 °C 1014.8 hPa NE 9.7 km/h 19.3 km/h 84.8% 0 mm 104 W/m2
07:14 11.4 °C 8.9 °C 1014.8 hPa ENE 7.9 km/h 16.1 km/h 84.4% 0 mm 137 W/m2
07:19 11.6 °C 9.1 °C 1014.8 hPa East 5.8 km/h 22.5 km/h 84.2% 0 mm 148 W/m2
07:24 11.8 °C 9.2 °C 1014.8 hPa ENE 8.9 km/h 19.3 km/h 84% 0 mm 123 W/m2
07:29 11.9 °C 9.3 °C 1014.8 hPa ENE 8.5 km/h 24.1 km/h 84% 0 mm 172 W/m2
07:34 12 °C 9.2 °C 1014.8 hPa ENE 10.6 km/h 25.7 km/h 83.2% 0 mm 209 W/m2
07:39 12.1 °C 9.3 °C 1014.8 hPa East 11.9 km/h 22.5 km/h 83% 0 mm 200 W/m2
07:44 12.2 °C 9.4 °C 1014.8 hPa East 10.3 km/h 22.5 km/h 83% 0 mm 156 W/m2
07:49 12.2 °C 9.2 °C 1014.8 hPa ENE 10.6 km/h 22.5 km/h 82% 0 mm 153 W/m2
07:54 12.3 °C 9.3 °C 1014.8 hPa ENE 11.6 km/h 24.1 km/h 82% 0 mm 172 W/m2
07:59 12.3 °C 9.3 °C 1014.8 hPa ENE 11.3 km/h 24.1 km/h 82% 0 mm 174 W/m2
08:04 12.4 °C 9.4 °C 1014.8 hPa NE 11.9 km/h 17.7 km/h 82% 0 mm 186 W/m2
08:09 12.4 °C 9.4 °C 1014.8 hPa ENE 10 km/h 29 km/h 82% 0 mm 178 W/m2
08:14 12.6 °C 9.4 °C 1014.8 hPa NE 11.3 km/h 24.1 km/h 81.2% 0 mm 197 W/m2
08:19 12.7 °C 9.4 °C 1014.4 hPa ENE 5.6 km/h 25.7 km/h 81% 0 mm 216 W/m2
08:24 12.8 °C 9.6 °C 1014.8 hPa ENE 13.8 km/h 29 km/h 81% 0 mm 163 W/m2
08:29 12.8 °C 9.6 °C 1014.8 hPa NE 15.1 km/h 27.4 km/h 81% 0 mm 162 W/m2
08:34 12.8 °C 9.5 °C 1014.8 hPa ENE 10.9 km/h 27.4 km/h 80.4% 0 mm 169 W/m2
08:39 12.8 °C 9.4 °C 1014.8 hPa NE 13.8 km/h 27.4 km/h 80% 0 mm 160 W/m2
08:44 13 °C 9.6 °C 1014.4 hPa East 10.3 km/h 27.4 km/h 80% 0 mm 188 W/m2
08:49 13.2 °C 9.8 °C 1014.4 hPa East 13.2 km/h 24.1 km/h 80% 0 mm 401 W/m2
08:54 13.6 °C 10.2 °C 1014.4 hPa East 11.4 km/h 24.1 km/h 80% 0 mm 448 W/m2
08:59 14.1 °C 10.6 °C 1014.4 hPa East 5.5 km/h 17.7 km/h 79.4% 0 mm 476 W/m2
09:04 14.4 °C 10.7 °C 1014.4 hPa NE 12.4 km/h 19.3 km/h 78.4% 0 mm 469 W/m2
09:09 14.7 °C 10.7 °C 1014.8 hPa ENE 14.5 km/h 25.7 km/h 77% 0 mm 492 W/m2
09:14 14.9 °C 10.7 °C 1014.4 hPa East 10.1 km/h 25.7 km/h 76% 0 mm 503 W/m2
09:19 15.2 °C 10.9 °C 1014.4 hPa East 6.8 km/h 20.9 km/h 75.6% 0 mm 519 W/m2
09:24 15.4 °C 11 °C 1014.4 hPa NE 8.4 km/h 17.7 km/h 74.8% 0 mm 534 W/m2
09:29 15.7 °C 11.1 °C 1014.4 hPa ENE 6.8 km/h 16.1 km/h 74% 0 mm 543 W/m2
09:34 16 °C 11.3 °C 1014.4 hPa NNE 7.9 km/h 16.1 km/h 73.2% 0 mm 561 W/m2
09:39 16.1 °C 11.2 °C 1014.4 hPa NE 8.7 km/h 19.3 km/h 72.8% 0 mm 570 W/m2
09:44 16.3 °C 11.2 °C 1014.4 hPa NNE 9.7 km/h 16.1 km/h 72% 0 mm 589 W/m2
09:49 16.5 °C 11.4 °C 1014.4 hPa NE 6.4 km/h 25.7 km/h 71.8% 0 mm 622 W/m2
09:54 16.6 °C 11.3 °C 1014.4 hPa NE 6.6 km/h 25.7 km/h 71.2% 0 mm 622 W/m2
09:59 16.6 °C 11.4 °C 1014.4 hPa NE 6.6 km/h 14.5 km/h 71.8% 0 mm 654 W/m2
10:04 16.8 °C 11.7 °C 1014.4 hPa NE 8.4 km/h 19.3 km/h 71.6% 0 mm 668 W/m2
10:09 17.2 °C 11.8 °C 1014.4 hPa NE 9.3 km/h 22.5 km/h 71% 0 mm 693 W/m2
10:14 17.6 °C 12.2 °C 1014.4 hPa ENE 6.8 km/h 22.5 km/h 70.6% 0 mm 729 W/m2
10:19 18.1 °C 12.4 °C 1014.4 hPa East 8.4 km/h 20.9 km/h 69.6% 0 mm 728 W/m2
10:24 18.2 °C 12.4 °C 1014.1 hPa NE 9.5 km/h 20.9 km/h 68.8% 0 mm 330 W/m2
10:29 18.1 °C 12.3 °C 1014.1 hPa SE 7.1 km/h 16.1 km/h 68.8% 0 mm 708 W/m2
10:34 18.1 °C 12.2 °C 1014.1 hPa ENE 4.5 km/h 12.9 km/h 68.8% 0 mm 642 W/m2
10:39 18.3 °C 12.4 °C 1014.1 hPa ENE 5.3 km/h 22.5 km/h 68.2% 0 mm 475 W/m2
10:44 18.3 °C 12.3 °C 1014.1 hPa NE 3.4 km/h 12.9 km/h 68% 0 mm 603 W/m2
10:49 18.4 °C 12.4 °C 1013.8 hPa East 7.6 km/h 16.1 km/h 68% 0 mm 696 W/m2
10:54 18.3 °C 12.3 °C 1013.8 hPa East 6.3 km/h 16.1 km/h 67.8% 0 mm 759 W/m2
10:59 18.7 °C 12.8 °C 1013.8 hPa NE 7.6 km/h 17.7 km/h 68.8% 0 mm 867 W/m2
11:04 19.1 °C 13.1 °C 1013.8 hPa NE 13.8 km/h 20.9 km/h 68% 0 mm 860 W/m2
11:09 19.7 °C 13.4 °C 1013.8 hPa ENE 11.9 km/h 19.3 km/h 67.2% 0 mm 809 W/m2
11:14 20.1 °C 13.5 °C 1013.8 hPa ENE 7.6 km/h 16.1 km/h 66% 0 mm 777 W/m2
11:19 20.3 °C 13.5 °C 1013.4 hPa East 5.5 km/h 20.9 km/h 65.3% 0 mm 763 W/m2
11:24 20.5 °C 13.6 °C 1013.4 hPa NE 13 km/h 24.1 km/h 64.4% 0 mm 765 W/m2
11:29 20.4 °C 13.6 °C 1013.4 hPa North 2.7 km/h 24.1 km/h 64.8% 0 mm 789 W/m2
11:34 20.7 °C 13.8 °C 1013.4 hPa East 9 km/h 20.9 km/h 65% 0 mm 812 W/m2
11:39 20.8 °C 13.7 °C 1013.4 hPa NE 14.8 km/h 24.1 km/h 64% 0 mm 802 W/m2
11:44 21 °C 13.8 °C 1013.4 hPa East 12.2 km/h 27.4 km/h 63.4% 0 mm 796 W/m2
11:49 21.1 °C 13.9 °C 1013.4 hPa East 9.3 km/h 22.5 km/h 63.6% 0 mm 823 W/m2
11:54 21.2 °C 14 °C 1013.4 hPa NNE 10.6 km/h 22.5 km/h 63.4% 0 mm 816 W/m2
11:59 21.4 °C 14.3 °C 1013.4 hPa NNE 8 km/h 17.7 km/h 63.8% 0 mm 812 W/m2
12:04 21.7 °C 14.9 °C 1013.4 hPa NNE 9.7 km/h 32.2 km/h 65.4% 0 mm 814 W/m2
12:09 21.7 °C 14.8 °C 1013.4 hPa NE 10.6 km/h 32.2 km/h 65% 0 mm 819 W/m2
12:14 21.8 °C 14.9 °C 1013.1 hPa NE 8.7 km/h 22.5 km/h 65% 0 mm 826 W/m2
12:19 22.1 °C 15.2 °C 1013.1 hPa NE 10.6 km/h 24.1 km/h 65% 0 mm 837 W/m2
12:24 22.2 °C 15.3 °C 1013.1 hPa NE 10 km/h 22.5 km/h 65% 0 mm 853 W/m2
12:29 22.5 °C 15.4 °C 1013.1 hPa NNE 7.1 km/h 29 km/h 64.4% 0 mm 856 W/m2
12:34 22.7 °C 15.4 °C 1013.1 hPa NE 15.4 km/h 24.1 km/h 64% 0 mm 830 W/m2
12:39 22.7 °C 15.5 °C 1013.1 hPa ENE 8.7 km/h 27.4 km/h 64% 0 mm 833 W/m2
12:44 22.9 °C 15.7 °C 1012.8 hPa East 9.7 km/h 29 km/h 63.6% 0 mm 828 W/m2
12:49 22.7 °C 15.6 °C 1012.8 hPa East 8.4 km/h 20.9 km/h 64.2% 0 mm 847 W/m2
12:54 22.7 °C 15.5 °C 1012.8 hPa NE 9.5 km/h 16.1 km/h 64% 0 mm 840 W/m2
12:59 23 °C 15.8 °C 1012.8 hPa NE 8.7 km/h 22.5 km/h 64% 0 mm 851 W/m2
13:04 23.4 °C 15.9 °C 1012.8 hPa ENE 11.6 km/h 29 km/h 62.8% 0 mm 854 W/m2
13:09 23.5 °C 15.9 °C 1012.8 hPa NE 11.4 km/h 29 km/h 62.8% 0 mm 858 W/m2
13:14 23.6 °C 15.9 °C 1012.8 hPa ESE 14.8 km/h 20.9 km/h 62.2% 0 mm 858 W/m2
13:19 23.7 °C 16 °C 1012.8 hPa ENE 16.1 km/h 29 km/h 62% 0 mm 851 W/m2
13:24 23.8 °C 16.1 °C 1012.8 hPa East 10.1 km/h 29 km/h 62% 0 mm 830 W/m2
13:29 23.8 °C 16.1 °C 1012.8 hPa NE 11.3 km/h 25.7 km/h 62% 0 mm 835 W/m2
13:34 24.1 °C 16.1 °C 1012.4 hPa NE 9.7 km/h 25.7 km/h 61% 0 mm 849 W/m2
13:39 24.2 °C 16.2 °C 1012.4 hPa NE 10.9 km/h 25.7 km/h 61% 0 mm 851 W/m2
13:44 24.4 °C 16.4 °C 1012.4 hPa ENE 14.2 km/h 29 km/h 60.8% 0 mm 847 W/m2
13:49 24.6 °C 16.4 °C 1012.4 hPa NNE 11.6 km/h 29 km/h 60.6% 0 mm 784 W/m2
13:54 24.5 °C 16.5 °C 1012.4 hPa NE 10.8 km/h 27.4 km/h 61% 0 mm 863 W/m2
13:59 24.5 °C 16.5 °C 1012.4 hPa ESE 9.7 km/h 22.5 km/h 61% 0 mm 838 W/m2
14:04 24.8 °C 16.7 °C 1012.4 hPa East 8 km/h 22.5 km/h 60.8% 0 mm 879 W/m2
14:09 24.7 °C 16.4 °C 1012.4 hPa ESE 7.2 km/h 17.7 km/h 60.4% 0 mm 872 W/m2
14:14 24.7 °C 16.8 °C 1012.4 hPa NE 5.3 km/h 20.9 km/h 61.2% 0 mm 872 W/m2
14:19 25 °C 16.7 °C 1012.4 hPa ENE 7.7 km/h 25.7 km/h 60% 0 mm 863 W/m2
14:24 25.1 °C 16.8 °C 1012.4 hPa ENE 10 km/h 22.5 km/h 60.4% 0 mm 851 W/m2
14:29 25.3 °C 16.8 °C 1012.4 hPa ENE 10.3 km/h 29 km/h 59.5% 0 mm 810 W/m2
14:34 25.5 °C 17.1 °C 1012.4 hPa NE 13.2 km/h 24.1 km/h 59.4% 0 mm 824 W/m2
14:39 25.7 °C 17 °C 1012.1 hPa ENE 15.1 km/h 25.7 km/h 58.8% 0 mm 789 W/m2
14:44 25.6 °C 17 °C 1012.1 hPa East 12.6 km/h 27.4 km/h 59% 0 mm 810 W/m2
14:49 25.8 °C 17.3 °C 1012.1 hPa NE 10.6 km/h 25.7 km/h 59% 0 mm 819 W/m2
14:54 26.1 °C 17.2 °C 1012.1 hPa ENE 12.6 km/h 29 km/h 58% 0 mm 817 W/m2
14:59 26.2 °C 17.3 °C 1012.1 hPa ENE 12.6 km/h 30.6 km/h 58.2% 0 mm 803 W/m2
15:04 26.1 °C 17.2 °C 1011.7 hPa ESE 10 km/h 25.7 km/h 58% 0 mm 795 W/m2
15:09 26.2 °C 17.4 °C 1011.7 hPa East 11.3 km/h 25.7 km/h 58.2% 0 mm 788 W/m2
15:14 26.6 °C 17.6 °C 1011.7 hPa ENE 9.3 km/h 22.5 km/h 57.6% 0 mm 766 W/m2
15:19 26.8 °C 17.6 °C 1011.7 hPa ENE 8.2 km/h 17.7 km/h 57.2% 0 mm 765 W/m2
15:24 27.1 °C 17.8 °C 1011.7 hPa NE 10.6 km/h 25.7 km/h 57% 0 mm 773 W/m2
15:29 27.3 °C 17.8 °C 1011.7 hPa ENE 12.6 km/h 30.6 km/h 56% 0 mm 773 W/m2
15:34 27 °C 17.7 °C 1011.7 hPa NE 6.6 km/h 25.7 km/h 56.6% 0 mm 722 W/m2
15:39 27.1 °C 17.8 °C 1011.7 hPa East 6.8 km/h 20.9 km/h 57% 0 mm 707 W/m2
15:44 27.2 °C 17.8 °C 1011.4 hPa ENE 15.4 km/h 29 km/h 56.2% 0 mm 701 W/m2
15:49 27 °C 17.7 °C 1011.4 hPa East 11.1 km/h 29 km/h 56.6% 0 mm 700 W/m2
15:54 27 °C 17.7 °C 1011.4 hPa ENE 13.8 km/h 22.5 km/h 56.8% 0 mm 689 W/m2
15:59 27.2 °C 17.8 °C 1011.4 hPa East 11.6 km/h 27.4 km/h 56.4% 0 mm 694 W/m2
16:04 27.2 °C 17.8 °C 1011.4 hPa ENE 11.7 km/h 25.7 km/h 56.4% 0 mm 673 W/m2
16:09 27.3 °C 17.8 °C 1011.4 hPa NE 14.5 km/h 27.4 km/h 56.2% 0 mm 661 W/m2
16:14 27.4 °C 17.9 °C 1011.4 hPa ENE 9.2 km/h 22.5 km/h 56.2% 0 mm 666 W/m2
16:19 27.4 °C 17.8 °C 1011.1 hPa ESE 10 km/h 25.7 km/h 56% 0 mm 533 W/m2
16:24 27.2 °C 17.9 °C 1011.1 hPa East 6.6 km/h 25.7 km/h 57% 0 mm 517 W/m2
16:29 27.1 °C 17.9 °C 1011.1 hPa East 10.9 km/h 24.1 km/h 57.2% 0 mm 670 W/m2
16:34 27.2 °C 17.9 °C 1011.1 hPa NE 10 km/h 22.5 km/h 57.2% 0 mm 631 W/m2
16:39 27.4 °C 18.1 °C 1011.1 hPa ENE 11.4 km/h 24.1 km/h 56.8% 0 mm 603 W/m2
16:44 27.7 °C 18.1 °C 1011.1 hPa East 9 km/h 25.7 km/h 56% 0 mm 610 W/m2
16:49 27.7 °C 18.1 °C 1011.1 hPa East 10.6 km/h 20.9 km/h 56% 0 mm 599 W/m2
16:54 27.8 °C 18 °C 1011.1 hPa East 11.9 km/h 24.1 km/h 55.2% 0 mm 601 W/m2
16:59 27.8 °C 18.1 °C 1011.1 hPa ENE 8.4 km/h 20.9 km/h 55.6% 0 mm 599 W/m2
17:04 28 °C 18.1 °C 1011.1 hPa ENE 8.2 km/h 20.9 km/h 55% 0 mm 596 W/m2
17:09 28 °C 18.2 °C 1011.1 hPa NE 8.4 km/h 19.3 km/h 55.2% 0 mm 577 W/m2
17:14 27.8 °C 18.2 °C 1011.1 hPa NE 10.8 km/h 24.1 km/h 56% 0 mm 568 W/m2
17:19 27.6 °C 18.2 °C 1011.1 hPa NE 6 km/h 20.9 km/h 56.6% 0 mm 536 W/m2
17:24 27.7 °C 18.1 °C 1011.1 hPa ENE 13.2 km/h 25.7 km/h 56% 0 mm 533 W/m2
17:29 27.6 °C 18 °C 1011.1 hPa East 11.6 km/h 22.5 km/h 56% 0 mm 526 W/m2
17:34 27.7 °C 18.2 °C 1011.1 hPa ENE 9.7 km/h 17.7 km/h 56% 0 mm 522 W/m2
17:39 27.9 °C 18.3 °C 1011.1 hPa ENE 11.3 km/h 20.9 km/h 55.8% 0 mm 485 W/m2
17:44 27.9 °C 18 °C 1011.1 hPa ENE 6.6 km/h 24.1 km/h 55% 0 mm 480 W/m2
17:49 27.8 °C 17.7 °C 1011.1 hPa ENE 8.9 km/h 25.7 km/h 54.6% 0 mm 464 W/m2
17:54 27.6 °C 17.6 °C 1011.1 hPa ENE 9 km/h 27.4 km/h 54.6% 0 mm 445 W/m2
17:59 27.3 °C 17.3 °C 1011.1 hPa ESE 9.3 km/h 20.9 km/h 54.4% 0 mm 434 W/m2
18:04 27.3 °C 17.3 °C 1011.1 hPa East 14.8 km/h 24.1 km/h 54.2% 0 mm 422 W/m2
18:09 27.3 °C 17.2 °C 1011.1 hPa ESE 8.7 km/h 35.4 km/h 54% 0 mm 415 W/m2
18:14 27.1 °C 17.1 °C 1011.1 hPa East 10 km/h 24.1 km/h 54.4% 0 mm 411 W/m2
18:19 27.2 °C 17.3 °C 1011.1 hPa East 10.3 km/h 27.4 km/h 54.6% 0 mm 394 W/m2
18:24 27.3 °C 17.3 °C 1011.1 hPa East 6 km/h 20.9 km/h 54% 0 mm 373 W/m2
18:29 27.5 °C 17.4 °C 1011.1 hPa ESE 9.7 km/h 24.1 km/h 54% 0 mm 348 W/m2
18:34 27.4 °C 17.2 °C 1011.1 hPa East 10.3 km/h 24.1 km/h 53.6% 0 mm 338 W/m2
18:39 27.6 °C 17.3 °C 1011.1 hPa East 16.7 km/h 24.1 km/h 53.2% 0 mm 308 W/m2
18:44 27.5 °C 17.1 °C 1011.1 hPa ENE 12.1 km/h 24.1 km/h 53% 0 mm 302 W/m2
18:49 27.3 °C 17.2 °C 1011.1 hPa ESE 11.9 km/h 22.5 km/h 54% 0 mm 295 W/m2
18:54 27.2 °C 17.1 °C 1011.1 hPa East 10 km/h 20.9 km/h 54% 0 mm 287 W/m2
18:59 27.2 °C 17.1 °C 1011.1 hPa NNE 5.8 km/h 20.9 km/h 54% 0 mm 271 W/m2
19:04 27.2 °C 17.4 °C 1011.1 hPa NE 3.5 km/h 17.7 km/h 55% 0 mm 257 W/m2
19:09 27.1 °C 17.3 °C 1011.1 hPa ENE 7.7 km/h 24.1 km/h 55% 0 mm 243 W/m2
19:14 26.8 °C 17.1 °C 1011.1 hPa ENE 7.4 km/h 25.7 km/h 55% 0 mm 214 W/m2
19:19 26.8 °C 17.1 °C 1011.1 hPa East 9.3 km/h 24.1 km/h 55% 0 mm 213 W/m2
19:24 26.8 °C 17 °C 1011.1 hPa ENE 10.8 km/h 20.9 km/h 55% 0 mm 207 W/m2
19:29 26.7 °C 17 °C 1011.1 hPa ENE 11.6 km/h 24.1 km/h 55.4% 0 mm 193 W/m2
19:34 26.4 °C 16.9 °C 1011.1 hPa East 8 km/h 24.1 km/h 56% 0 mm 186 W/m2
19:39 26.3 °C 16.9 °C 1011.4 hPa ENE 8.4 km/h 20.9 km/h 56.4% 0 mm 169 W/m2
19:44 26.2 °C 17 °C 1011.4 hPa NE 5.8 km/h 16.1 km/h 57% 0 mm 144 W/m2
19:49 26.3 °C 17.1 °C 1011.4 hPa ENE 7.4 km/h 20.9 km/h 57% 0 mm 139 W/m2
19:54 26.2 °C 17 °C 1011.4 hPa ENE 8.5 km/h 22.5 km/h 57% 0 mm 120 W/m2
19:59 25.9 °C 17.1 °C 1011.4 hPa ENE 8.7 km/h 17.7 km/h 58% 0 mm 105 W/m2
20:04 25.8 °C 16.8 °C 1011.4 hPa East 6 km/h 17.7 km/h 58% 0 mm 97 W/m2
20:09 25.6 °C 16.9 °C 1011.4 hPa ENE 6.9 km/h 20.9 km/h 59% 0 mm 88 W/m2
20:14 25.4 °C 16.8 °C 1011.4 hPa ENE 6.8 km/h 20.9 km/h 59% 0 mm 83 W/m2
20:19 25.2 °C 17 °C 1011.4 hPa ENE 8.5 km/h 19.3 km/h 60.4% 0 mm 49 W/m2
20:24 24.9 °C 17.2 °C 1011.7 hPa NE 14.2 km/h 22.5 km/h 62.2% 0 mm 35 W/m2
20:29 24.4 °C 17.3 °C 1011.7 hPa NE 7.9 km/h 22.5 km/h 64.8% 0 mm 32 W/m2
20:34 24 °C 17.3 °C 1011.7 hPa NE 11.9 km/h 20.9 km/h 66.4% 0 mm 28 W/m2
20:39 23.7 °C 17.3 °C 1011.7 hPa NE 10.9 km/h 20.9 km/h 67.8% 0 mm 28 W/m2
20:44 23.3 °C 17.3 °C 1011.7 hPa NE 10 km/h 20.9 km/h 68.8% 0 mm 28 W/m2
20:49 23.1 °C 17.1 °C 1011.7 hPa ENE 9.3 km/h 24.1 km/h 69.4% 0 mm 23 W/m2
20:54 22.7 °C 16.9 °C 1011.7 hPa ENE 6.3 km/h 20.9 km/h 70% 0 mm 19 W/m2
20:59 22.4 °C 16.9 °C 1011.7 hPa ENE 8.7 km/h 22.5 km/h 71% 0 mm 18 W/m2
21:04 22.2 °C 16.7 °C 1012.1 hPa NNE 10 km/h 27.4 km/h 71% 0 mm 16 W/m2
21:09 22 °C 16.7 °C 1012.1 hPa ENE 9.2 km/h 27.4 km/h 72% 0 mm 12 W/m2
21:14 21.8 °C 16.6 °C 1012.1 hPa ENE 9.5 km/h 20.9 km/h 72.6% 0 mm 11 W/m2
21:19 21.6 °C 16.6 °C 1012.1 hPa ENE 8.5 km/h 25.7 km/h 73% 0 mm 7 W/m2
21:24 21.5 °C 16.5 °C 1012.1 hPa ENE 7.4 km/h 29 km/h 73.2% 0 mm 5 W/m2
21:29 21.4 °C 16.4 °C 1012.1 hPa ENE 12.2 km/h 27.4 km/h 73% 0 mm 0 W/m2
21:34 21.3 °C 16.3 °C 1012.1 hPa ENE 11.1 km/h 27.4 km/h 73% 0 mm 0 W/m2
21:39 21.2 °C 16.2 °C 1012.1 hPa ENE 12.2 km/h 29 km/h 73% 0 mm 0 W/m2
21:44 20.9 °C 16.1 °C 1012.4 hPa NNE 16.4 km/h 29 km/h 73.8% 0 mm 0 W/m2
21:49 20.7 °C 15.9 °C 1012.4 hPa ENE 15.1 km/h 29 km/h 74% 0 mm 0 W/m2
21:54 20.7 °C 15.8 °C 1012.4 hPa NE 8.5 km/h 22.5 km/h 74% 0 mm 0 W/m2
21:58 20.6 °C 15.9 °C 1012.4 hPa ENE 7.6 km/h 30.6 km/h 74.5% 0 mm 0 W/m2
22:04 20.4 °C 15.8 °C 1012.4 hPa ENE 10.6 km/h 29 km/h 75% 0 mm 0 W/m2
22:09 20.2 °C 15.7 °C 1012.8 hPa NE 10.5 km/h 24.1 km/h 75% 0 mm 0 W/m2
22:14 20.1 °C 15.5 °C 1012.8 hPa NE 8 km/h 22.5 km/h 75% 0 mm 0 W/m2
22:19 19.9 °C 15.4 °C 1012.8 hPa NE 3.9 km/h 24.1 km/h 75.6% 0 mm 0 W/m2
22:24 19.8 °C 15.4 °C 1012.8 hPa ENE 10.1 km/h 22.5 km/h 76% 0 mm 0 W/m2
22:29 19.7 °C 15.3 °C 1012.8 hPa ENE 13.8 km/h 25.7 km/h 76% 0 mm 0 W/m2
22:34 19.5 °C 15.2 °C 1012.8 hPa ENE 11.6 km/h 24.1 km/h 76% 0 mm 0 W/m2
22:39 19.2 °C 14.9 °C 1012.8 hPa East 13.5 km/h 20.9 km/h 76% 0 mm 0 W/m2
22:44 19 °C 14.8 °C 1012.8 hPa NE 14.2 km/h 25.7 km/h 76.8% 0 mm 0 W/m2
22:49 18.8 °C 14.7 °C 1012.8 hPa NE 10.3 km/h 25.7 km/h 77% 0 mm 0 W/m2
22:54 18.6 °C 14.5 °C 1012.8 hPa ENE 8 km/h 20.9 km/h 77% 0 mm 0 W/m2
22:59 18.4 °C 14.3 °C 1013.1 hPa NE 10 km/h 20.9 km/h 77% 0 mm 0 W/m2
23:04 18.3 °C 14.2 °C 1013.1 hPa NE 9.3 km/h 19.3 km/h 77% 0 mm 0 W/m2
23:09 18.2 °C 14.1 °C 1013.1 hPa NE 13.5 km/h 35.4 km/h 77% 0 mm 0 W/m2
23:14 18.1 °C 13.9 °C 1012.8 hPa NE 15.8 km/h 35.4 km/h 77% 0 mm 0 W/m2
23:19 17.8 °C 13.9 °C 1013.1 hPa NE 10 km/h 19.3 km/h 78% 0 mm 0 W/m2
23:24 17.7 °C 13.8 °C 1013.1 hPa NE 9.7 km/h 24.1 km/h 78% 0 mm 0 W/m2
23:29 17.7 °C 13.6 °C 1013.1 hPa ENE 10.8 km/h 24.1 km/h 77% 0 mm 0 W/m2
23:34 17.5 °C 13.4 °C 1013.1 hPa NE 4.8 km/h 22.5 km/h 77.4% 0 mm 0 W/m2
23:39 17.3 °C 13.4 °C 1013.1 hPa NE 6.1 km/h 24.1 km/h 78% 0 mm 0 W/m2
23:44 17.2 °C 13.3 °C 1013.1 hPa East 6.4 km/h 19.3 km/h 78% 0 mm 0 W/m2
23:49 17.1 °C 13.2 °C 1013.1 hPa NE 6.1 km/h 22.5 km/h 78% 0 mm 0 W/m2
23:54 16.9 °C 13 °C 1013.1 hPa East 11.7 km/h 17.7 km/h 78% 0 mm 0 W/m2
23:59 16.8 °C 13.1 °C 1013.1 hPa ENE 7.1 km/h 16.1 km/h 79% 0 mm 0 W/m2
Bath Spa Weather
Compliments of Weather Underground - 2 mb